Weather at Eek Airport

Public forecast

Using degrees Fahrenheit for public forecast. Weather courtesy of forecast.io.

Closest aviation weather report (METAR) to Eek Airport

Closest report is Quinhagak Airport, 28.2 nm (52.2 km) SSE. Retrieved 2021/04/13 19:16 UTC (14 minutes ago):

PAQH 131916Z AUTO 16014KT 1 1/4SM -SN BR SCT004 BKN018 OVC027 01/00 A2973 RMK AO2 P0000 FZRANO

Closest aviation forecast (TAF) to Eek Airport

Closest forecast is Bethel Airport, 34.5 nm (64.0 km) N. Retrieved 2021/04/13 18:42 UTC (48 minutes ago):

TAF PABE 131739Z 1318/1418 12007KT 3SM -SN BR OVC008 TEMPO 1318/1322 6SM -SN SCT008 OVC015 FM132200 16009KT 6SM -SN BR OVC020 FM140000 16007KT P6SM -SHSN SCT020 BKN040 FM140800 18004KT P6SM OVC007